sensor_id;sensor_type;location;lat;lon;timestamp;P1;durP1;ratioP1;P2;durP2;ratioP2
18776;SDS011;9517;51.174;4.160;2023-12-20T00:01:09;14.60;;;2.77;;
18776;SDS011;9517;51.174;4.160;2023-12-20T00:03:39;19.33;;;2.87;;
18776;SDS011;9517;51.174;4.160;2023-12-20T00:06:07;17.87;;;2.80;;
18776;SDS011;9517;51.174;4.160;2023-12-20T00:08:34;18.30;;;2.57;;
18776;SDS011;9517;51.174;4.160;2023-12-20T00:11:01;21.37;;;3.13;;
18776;SDS011;9517;51.174;4.160;2023-12-20T00:13:30;28.90;;;3.10;;
18776;SDS011;9517;51.174;4.160;2023-12-20T00:15:57;18.37;;;3.23;;
18776;SDS011;9517;51.174;4.160;2023-12-20T00:18:25;21.93;;;3.20;;
18776;SDS011;9517;51.174;4.160;2023-12-20T00:20:53;22.47;;;3.47;;
18776;SDS011;9517;51.174;4.160;2023-12-20T00:23:20;24.30;;;3.30;;
18776;SDS011;9517;51.174;4.160;2023-12-20T00:25:56;20.07;;;3.17;;
18776;SDS011;9517;51.174;4.160;2023-12-20T00:28:23;22.93;;;3.57;;
18776;SDS011;9517;51.174;4.160;2023-12-20T00:30:52;22.20;;;3.67;;
18776;SDS011;9517;51.174;4.160;2023-12-20T00:33:19;22.57;;;4.57;;
18776;SDS011;9517;51.174;4.160;2023-12-20T00:35:46;13.73;;;2.93;;
18776;SDS011;9517;51.174;4.160;2023-12-20T00:38:14;18.57;;;3.50;;
18776;SDS011;9517;51.174;4.160;2023-12-20T00:40:41;21.47;;;3.37;;
18776;SDS011;9517;51.174;4.160;2023-12-20T00:43:08;17.83;;;3.40;;
18776;SDS011;9517;51.174;4.160;2023-12-20T00:45:38;21.33;;;3.40;;
18776;SDS011;9517;51.174;4.160;2023-12-20T00:48:09;21.43;;;4.77;;
18776;SDS011;9517;51.174;4.160;2023-12-20T00:50:36;21.33;;;3.97;;
18776;SDS011;9517;51.174;4.160;2023-12-20T00:53:06;17.60;;;3.90;;
18776;SDS011;9517;51.174;4.160;2023-12-20T00:55:33;24.80;;;4.57;;
18776;SDS011;9517;51.174;4.160;2023-12-20T00:58:01;20.60;;;3.63;;
18776;SDS011;9517;51.174;4.160;2023-12-20T01:00:28;20.40;;;4.03;;
18776;SDS011;9517;51.174;4.160;2023-12-20T01:02:56;23.23;;;4.00;;
18776;SDS011;9517;51.174;4.160;2023-12-20T01:05:24;21.33;;;3.83;;
18776;SDS011;9517;51.174;4.160;2023-12-20T01:07:52;22.30;;;3.60;;
18776;SDS011;9517;51.174;4.160;2023-12-20T01:10:19;22.20;;;3.73;;
18776;SDS011;9517;51.174;4.160;2023-12-20T01:12:47;15.50;;;2.77;;
18776;SDS011;9517;51.174;4.160;2023-12-20T01:15:16;21.77;;;3.70;;
18776;SDS011;9517;51.174;4.160;2023-12-20T01:17:47;20.27;;;3.87;;
18776;SDS011;9517;51.174;4.160;2023-12-20T01:20:14;20.97;;;3.67;;
18776;SDS011;9517;51.174;4.160;2023-12-20T01:22:46;22.20;;;3.80;;
18776;SDS011;9517;51.174;4.160;2023-12-20T01:25:13;26.70;;;4.67;;
18776;SDS011;9517;51.174;4.160;2023-12-20T01:27:40;30.30;;;4.30;;
18776;SDS011;9517;51.174;4.160;2023-12-20T01:30:08;21.20;;;4.00;;
18776;SDS011;9517;51.174;4.160;2023-12-20T01:32:38;30.30;;;5.53;;
18776;SDS011;9517;51.174;4.160;2023-12-20T01:35:06;18.80;;;3.60;;
18776;SDS011;9517;51.174;4.160;2023-12-20T01:37:33;24.80;;;4.10;;
18776;SDS011;9517;51.174;4.160;2023-12-20T01:40:02;20.37;;;3.73;;
18776;SDS011;9517;51.174;4.160;2023-12-20T01:42:33;25.33;;;4.67;;
18776;SDS011;9517;51.174;4.160;2023-12-20T01:45:00;27.23;;;6.23;;
18776;SDS011;9517;51.174;4.160;2023-12-20T01:47:28;28.00;;;6.00;;
18776;SDS011;9517;51.174;4.160;2023-12-20T01:49:55;29.37;;;6.13;;
18776;SDS011;9517;51.174;4.160;2023-12-20T01:52:23;26.63;;;5.73;;
18776;SDS011;9517;51.174;4.160;2023-12-20T01:54:52;22.57;;;5.60;;
18776;SDS011;9517;51.174;4.160;2023-12-20T01:57:27;27.00;;;6.60;;
18776;SDS011;9517;51.174;4.160;2023-12-20T01:59:55;21.33;;;5.30;;
18776;SDS011;9517;51.174;4.160;2023-12-20T02:02:24;20.67;;;5.53;;
18776;SDS011;9517;51.174;4.160;2023-12-20T02:04:54;29.27;;;6.17;;
18776;SDS011;9517;51.174;4.160;2023-12-20T02:07:21;29.50;;;6.10;;
18776;SDS011;9517;51.174;4.160;2023-12-20T02:09:49;17.37;;;4.90;;
18776;SDS011;9517;51.174;4.160;2023-12-20T02:12:17;20.37;;;4.60;;
18776;SDS011;9517;51.174;4.160;2023-12-20T02:14:46;21.40;;;4.67;;
18776;SDS011;9517;51.174;4.160;2023-12-20T02:17:14;19.70;;;5.10;;
18776;SDS011;9517;51.174;4.160;2023-12-20T02:19:43;21.57;;;4.37;;
18776;SDS011;9517;51.174;4.160;2023-12-20T02:22:13;17.73;;;4.33;;
18776;SDS011;9517;51.174;4.160;2023-12-20T02:24:40;23.83;;;4.70;;
18776;SDS011;9517;51.174;4.160;2023-12-20T02:27:07;23.07;;;4.33;;
18776;SDS011;9517;51.174;4.160;2023-12-20T02:29:38;17.03;;;4.07;;
18776;SDS011;9517;51.174;4.160;2023-12-20T02:32:05;22.60;;;3.87;;
18776;SDS011;9517;51.174;4.160;2023-12-20T02:34:33;23.53;;;4.63;;
18776;SDS011;9517;51.174;4.160;2023-12-20T02:37:02;27.27;;;4.60;;
18776;SDS011;9517;51.174;4.160;2023-12-20T02:39:32;28.80;;;4.57;;
18776;SDS011;9517;51.174;4.160;2023-12-20T02:41:59;25.03;;;4.30;;
18776;SDS011;9517;51.174;4.160;2023-12-20T02:44:26;29.33;;;6.37;;
18776;SDS011;9517;51.174;4.160;2023-12-20T02:46:56;23.87;;;4.70;;
18776;SDS011;9517;51.174;4.160;2023-12-20T02:49:23;20.80;;;4.17;;
18776;SDS011;9517;51.174;4.160;2023-12-20T02:51:53;20.10;;;4.60;;
18776;SDS011;9517;51.174;4.160;2023-12-20T02:54:20;23.17;;;4.70;;
18776;SDS011;9517;51.174;4.160;2023-12-20T02:56:49;18.70;;;3.90;;
18776;SDS011;9517;51.174;4.160;2023-12-20T02:59:17;29.43;;;4.20;;
18776;SDS011;9517;51.174;4.160;2023-12-20T03:01:44;22.23;;;4.80;;
18776;SDS011;9517;51.174;4.160;2023-12-20T03:04:17;24.57;;;4.67;;
18776;SDS011;9517;51.174;4.160;2023-12-20T03:06:44;24.47;;;5.23;;
18776;SDS011;9517;51.174;4.160;2023-12-20T03:09:12;23.73;;;4.83;;
18776;SDS011;9517;51.174;4.160;2023-12-20T03:11:42;26.60;;;4.40;;
18776;SDS011;9517;51.174;4.160;2023-12-20T03:14:11;21.53;;;5.20;;
18776;SDS011;9517;51.174;4.160;2023-12-20T03:16:38;22.83;;;4.13;;
18776;SDS011;9517;51.174;4.160;2023-12-20T03:19:05;22.83;;;4.90;;
18776;SDS011;9517;51.174;4.160;2023-12-20T03:21:33;24.50;;;4.23;;
18776;SDS011;9517;51.174;4.160;2023-12-20T03:24:03;21.87;;;4.20;;
18776;SDS011;9517;51.174;4.160;2023-12-20T03:26:31;21.67;;;4.20;;
18776;SDS011;9517;51.174;4.160;2023-12-20T03:28:58;22.83;;;5.03;;
18776;SDS011;9517;51.174;4.160;2023-12-20T03:31:28;29.60;;;4.43;;
18776;SDS011;9517;51.174;4.160;2023-12-20T03:33:55;24.60;;;4.57;;
18776;SDS011;9517;51.174;4.160;2023-12-20T03:36:23;19.57;;;4.00;;
18776;SDS011;9517;51.174;4.160;2023-12-20T03:38:50;23.73;;;3.60;;
18776;SDS011;9517;51.174;4.160;2023-12-20T03:41:17;32.43;;;5.07;;
18776;SDS011;9517;51.174;4.160;2023-12-20T03:43:44;24.90;;;4.40;;
18776;SDS011;9517;51.174;4.160;2023-12-20T03:46:23;22.73;;;4.77;;
18776;SDS011;9517;51.174;4.160;2023-12-20T03:48:53;31.63;;;4.60;;
18776;SDS011;9517;51.174;4.160;2023-12-20T03:51:19;21.97;;;3.97;;
18776;SDS011;9517;51.174;4.160;2023-12-20T03:53:46;23.77;;;3.83;;
18776;SDS011;9517;51.174;4.160;2023-12-20T03:56:13;25.00;;;4.37;;
18776;SDS011;9517;51.174;4.160;2023-12-20T03:58:41;22.20;;;3.90;;
18776;SDS011;9517;51.174;4.160;2023-12-20T04:01:11;28.77;;;5.60;;
18776;SDS011;9517;51.174;4.160;2023-12-20T04:03:38;34.67;;;4.77;;
18776;SDS011;9517;51.174;4.160;2023-12-20T04:06:07;25.37;;;4.63;;
18776;SDS011;9517;51.174;4.160;2023-12-20T04:08:34;23.00;;;4.17;;
18776;SDS011;9517;51.174;4.160;2023-12-20T04:11:02;19.73;;;4.30;;
18776;SDS011;9517;51.174;4.160;2023-12-20T04:13:30;20.23;;;4.10;;
18776;SDS011;9517;51.174;4.160;2023-12-20T04:15:57;18.27;;;4.07;;
18776;SDS011;9517;51.174;4.160;2023-12-20T04:18:24;28.77;;;4.37;;
18776;SDS011;9517;51.174;4.160;2023-12-20T04:20:53;25.63;;;5.03;;
18776;SDS011;9517;51.174;4.160;2023-12-20T04:23:24;24.93;;;4.17;;
18776;SDS011;9517;51.174;4.160;2023-12-20T04:25:51;24.13;;;4.00;;
18776;SDS011;9517;51.174;4.160;2023-12-20T04:28:20;27.97;;;3.87;;
18776;SDS011;9517;51.174;4.160;2023-12-20T04:30:48;32.53;;;5.33;;
18776;SDS011;9517;51.174;4.160;2023-12-20T04:33:17;25.73;;;3.97;;
18776;SDS011;9517;51.174;4.160;2023-12-20T04:35:47;24.13;;;3.90;;
18776;SDS011;9517;51.174;4.160;2023-12-20T04:38:16;28.23;;;3.93;;
18776;SDS011;9517;51.174;4.160;2023-12-20T04:40:48;28.63;;;4.00;;
18776;SDS011;9517;51.174;4.160;2023-12-20T04:43:15;23.63;;;3.87;;
18776;SDS011;9517;51.174;4.160;2023-12-20T04:45:44;24.57;;;4.20;;
18776;SDS011;9517;51.174;4.160;2023-12-20T04:48:12;31.17;;;4.03;;
18776;SDS011;9517;51.174;4.160;2023-12-20T04:50:40;19.83;;;4.10;;
18776;SDS011;9517;51.174;4.160;2023-12-20T04:53:08;31.47;;;4.03;;
18776;SDS011;9517;51.174;4.160;2023-12-20T04:55:35;26.00;;;4.73;;
18776;SDS011;9517;51.174;4.160;2023-12-20T04:58:03;28.23;;;4.33;;
18776;SDS011;9517;51.174;4.160;2023-12-20T05:00:30;22.23;;;4.07;;
18776;SDS011;9517;51.174;4.160;2023-12-20T05:02:58;26.83;;;3.83;;
18776;SDS011;9517;51.174;4.160;2023-12-20T05:05:27;27.00;;;3.73;;
18776;SDS011;9517;51.174;4.160;2023-12-20T05:07:54;23.27;;;4.10;;
18776;SDS011;9517;51.174;4.160;2023-12-20T05:10:22;22.30;;;3.67;;
18776;SDS011;9517;51.174;4.160;2023-12-20T05:12:53;25.87;;;4.30;;
18776;SDS011;9517;51.174;4.160;2023-12-20T05:15:23;29.40;;;3.97;;
18776;SDS011;9517;51.174;4.160;2023-12-20T05:17:51;27.73;;;4.17;;
18776;SDS011;9517;51.174;4.160;2023-12-20T05:20:18;32.13;;;4.73;;
18776;SDS011;9517;51.174;4.160;2023-12-20T05:22:46;24.83;;;5.57;;
18776;SDS011;9517;51.174;4.160;2023-12-20T05:25:14;18.60;;;4.43;;
18776;SDS011;9517;51.174;4.160;2023-12-20T05:27:42;20.57;;;4.00;;
18776;SDS011;9517;51.174;4.160;2023-12-20T05:30:10;26.20;;;3.43;;
18776;SDS011;9517;51.174;4.160;2023-12-20T05:32:39;24.37;;;4.40;;
18776;SDS011;9517;51.174;4.160;2023-12-20T05:35:12;26.13;;;4.20;;
18776;SDS011;9517;51.174;4.160;2023-12-20T05:37:40;20.07;;;4.03;;
18776;SDS011;9517;51.174;4.160;2023-12-20T05:40:09;25.87;;;4.70;;
18776;SDS011;9517;51.174;4.160;2023-12-20T05:42:37;21.60;;;3.87;;
18776;SDS011;9517;51.174;4.160;2023-12-20T05:45:04;19.37;;;4.20;;
18776;SDS011;9517;51.174;4.160;2023-12-20T05:47:32;22.40;;;3.93;;
18776;SDS011;9517;51.174;4.160;2023-12-20T05:50:01;28.50;;;3.73;;
18776;SDS011;9517;51.174;4.160;2023-12-20T05:52:30;18.27;;;4.13;;
18776;SDS011;9517;51.174;4.160;2023-12-20T05:55:08;23.20;;;4.77;;
18776;SDS011;9517;51.174;4.160;2023-12-20T05:57:44;20.10;;;3.87;;
18776;SDS011;9517;51.174;4.160;2023-12-20T06:00:14;22.20;;;3.90;;
18776;SDS011;9517;51.174;4.160;2023-12-20T06:02:44;24.07;;;3.40;;
18776;SDS011;9517;51.174;4.160;2023-12-20T06:05:12;27.23;;;3.67;;
18776;SDS011;9517;51.174;4.160;2023-12-20T06:07:40;21.87;;;3.90;;
18776;SDS011;9517;51.174;4.160;2023-12-20T06:10:12;23.43;;;3.50;;
18776;SDS011;9517;51.174;4.160;2023-12-20T06:12:40;21.13;;;3.60;;
18776;SDS011;9517;51.174;4.160;2023-12-20T06:15:07;22.67;;;4.33;;
18776;SDS011;9517;51.174;4.160;2023-12-20T06:17:35;23.10;;;4.10;;
18776;SDS011;9517;51.174;4.160;2023-12-20T06:20:03;21.60;;;3.27;;
18776;SDS011;9517;51.174;4.160;2023-12-20T06:22:37;21.67;;;4.17;;
18776;SDS011;9517;51.174;4.160;2023-12-20T06:25:04;24.70;;;4.00;;
18776;SDS011;9517;51.174;4.160;2023-12-20T06:27:34;21.83;;;4.20;;
18776;SDS011;9517;51.174;4.160;2023-12-20T06:30:01;26.50;;;4.07;;
18776;SDS011;9517;51.174;4.160;2023-12-20T06:32:28;24.47;;;4.07;;
18776;SDS011;9517;51.174;4.160;2023-12-20T06:35:00;18.17;;;3.60;;
18776;SDS011;9517;51.174;4.160;2023-12-20T06:37:45;17.67;;;3.87;;
18776;SDS011;9517;51.174;4.160;2023-12-20T07:22:14;17.17;;;3.20;;
18776;SDS011;9517;51.174;4.160;2023-12-20T07:25:02;18.27;;;3.30;;
18776;SDS011;9517;51.174;4.160;2023-12-20T07:27:51;19.63;;;3.93;;
18776;SDS011;9517;51.174;4.160;2023-12-20T07:30:20;22.50;;;3.40;;
18776;SDS011;9517;51.174;4.160;2023-12-20T07:35:49;23.87;;;3.80;;
18776;SDS011;9517;51.174;4.160;2023-12-20T07:38:21;16.53;;;3.43;;
18776;SDS011;9517;51.174;4.160;2023-12-20T07:40:48;23.43;;;4.10;;
18776;SDS011;9517;51.174;4.160;2023-12-20T07:43:16;30.07;;;4.00;;
18776;SDS011;9517;51.174;4.160;2023-12-20T07:45:43;24.83;;;3.90;;
18776;SDS011;9517;51.174;4.160;2023-12-20T07:48:10;21.80;;;3.47;;
18776;SDS011;9517;51.174;4.160;2023-12-20T07:50:41;17.47;;;3.50;;
18776;SDS011;9517;51.174;4.160;2023-12-20T07:53:08;20.27;;;3.77;;
18776;SDS011;9517;51.174;4.160;2023-12-20T07:55:37;18.03;;;3.47;;
18776;SDS011;9517;51.174;4.160;2023-12-20T07:58:08;21.93;;;3.80;;
18776;SDS011;9517;51.174;4.160;2023-12-20T08:00:35;22.03;;;3.40;;
18776;SDS011;9517;51.174;4.160;2023-12-20T08:03:10;19.70;;;3.87;;
18776;SDS011;9517;51.174;4.160;2023-12-20T08:05:41;18.03;;;3.23;;
18776;SDS011;9517;51.174;4.160;2023-12-20T08:08:08;22.93;;;3.30;;
18776;SDS011;9517;51.174;4.160;2023-12-20T08:14:05;20.13;;;3.37;;
18776;SDS011;9517;51.174;4.160;2023-12-20T08:17:12;28.47;;;4.60;;
18776;SDS011;9517;51.174;4.160;2023-12-20T08:23:31;18.53;;;3.80;;
18776;SDS011;9517;51.174;4.160;2023-12-20T08:32:52;22.37;;;3.63;;
18776;SDS011;9517;51.174;4.160;2023-12-20T08:35:32;18.10;;;3.03;;
18776;SDS011;9517;51.174;4.160;2023-12-20T08:44:38;17.60;;;3.50;;
18776;SDS011;9517;51.174;4.160;2023-12-20T08:55:19;23.37;;;3.60;;
18776;SDS011;9517;51.174;4.160;2023-12-20T09:02:04;25.37;;;3.47;;
18776;SDS011;9517;51.174;4.160;2023-12-20T09:07:44;16.03;;;3.47;;
18776;SDS011;9517;51.174;4.160;2023-12-20T10:00:39;27.70;;;4.03;;
18776;SDS011;9517;51.174;4.160;2023-12-20T10:03:06;20.00;;;3.90;;
18776;SDS011;9517;51.174;4.160;2023-12-20T10:05:39;20.47;;;3.83;;
18776;SDS011;9517;51.174;4.160;2023-12-20T10:08:11;14.93;;;3.40;;
18776;SDS011;9517;51.174;4.160;2023-12-20T11:09:16;20.60;;;3.00;;
18776;SDS011;9517;51.174;4.160;2023-12-20T11:11:56;19.27;;;3.13;;
18776;SDS011;9517;51.174;4.160;2023-12-20T11:14:34;20.80;;;3.80;;
18776;SDS011;9517;51.174;4.160;2023-12-20T11:17:08;15.07;;;2.83;;
18776;SDS011;9517;51.174;4.160;2023-12-20T11:19:43;20.03;;;3.70;;
18776;SDS011;9517;51.174;4.160;2023-12-20T11:22:31;22.33;;;3.50;;
18776;SDS011;9517;51.174;4.160;2023-12-20T11:37:08;14.93;;;4.10;;
18776;SDS011;9517;51.174;4.160;2023-12-20T11:47:55;25.30;;;3.83;;
18776;SDS011;9517;51.174;4.160;2023-12-20T11:50:07;18.80;;;3.20;;
18776;SDS011;9517;51.174;4.160;2023-12-20T11:59:13;21.73;;;4.20;;
18776;SDS011;9517;51.174;4.160;2023-12-20T12:02:20;21.50;;;3.50;;
18776;SDS011;9517;51.174;4.160;2023-12-20T12:09:11;18.67;;;2.90;;
18776;SDS011;9517;51.174;4.160;2023-12-20T12:12:27;22.67;;;3.40;;
18776;SDS011;9517;51.174;4.160;2023-12-20T12:14:55;24.60;;;3.63;;
18776;SDS011;9517;51.174;4.160;2023-12-20T12:17:23;20.40;;;3.13;;
18776;SDS011;9517;51.174;4.160;2023-12-20T12:19:51;16.00;;;3.00;;
18776;SDS011;9517;51.174;4.160;2023-12-20T12:22:37;19.00;;;3.03;;
18776;SDS011;9517;51.174;4.160;2023-12-20T12:25:23;21.47;;;3.80;;
18776;SDS011;9517;51.174;4.160;2023-12-20T12:27:52;17.20;;;3.37;;
18776;SDS011;9517;51.174;4.160;2023-12-20T12:30:20;21.03;;;4.07;;
18776;SDS011;9517;51.174;4.160;2023-12-20T12:32:48;17.47;;;3.50;;
18776;SDS011;9517;51.174;4.160;2023-12-20T12:35:15;22.80;;;3.87;;
18776;SDS011;9517;51.174;4.160;2023-12-20T12:37:43;17.37;;;3.20;;
18776;SDS011;9517;51.174;4.160;2023-12-20T12:40:11;15.77;;;2.80;;
18776;SDS011;9517;51.174;4.160;2023-12-20T12:42:40;19.40;;;3.67;;
18776;SDS011;9517;51.174;4.160;2023-12-20T12:45:11;18.17;;;3.60;;
18776;SDS011;9517;51.174;4.160;2023-12-20T12:47:38;20.43;;;3.90;;
18776;SDS011;9517;51.174;4.160;2023-12-20T12:50:12;19.37;;;3.97;;
18776;SDS011;9517;51.174;4.160;2023-12-20T12:53:14;16.60;;;3.80;;
18776;SDS011;9517;51.174;4.160;2023-12-20T12:56:04;24.27;;;3.60;;
18776;SDS011;9517;51.174;4.160;2023-12-20T12:58:32;24.87;;;3.60;;
18776;SDS011;9517;51.174;4.160;2023-12-20T13:01:01;19.20;;;3.90;;
18776;SDS011;9517;51.174;4.160;2023-12-20T13:03:29;21.93;;;3.37;;
18776;SDS011;9517;51.174;4.160;2023-12-20T13:05:57;14.17;;;3.23;;
18776;SDS011;9517;51.174;4.160;2023-12-20T13:08:26;16.40;;;3.20;;
18776;SDS011;9517;51.174;4.160;2023-12-20T13:10:55;20.20;;;3.73;;
18776;SDS011;9517;51.174;4.160;2023-12-20T13:13:25;19.30;;;3.37;;
18776;SDS011;9517;51.174;4.160;2023-12-20T13:15:53;20.97;;;3.90;;
18776;SDS011;9517;51.174;4.160;2023-12-20T13:18:23;22.63;;;3.70;;
18776;SDS011;9517;51.174;4.160;2023-12-20T13:20:53;22.20;;;3.30;;
18776;SDS011;9517;51.174;4.160;2023-12-20T13:23:21;19.60;;;4.10;;
18776;SDS011;9517;51.174;4.160;2023-12-20T13:25:49;23.20;;;3.33;;
18776;SDS011;9517;51.174;4.160;2023-12-20T13:28:16;23.17;;;4.43;;
18776;SDS011;9517;51.174;4.160;2023-12-20T13:30:44;21.70;;;2.97;;
18776;SDS011;9517;51.174;4.160;2023-12-20T13:33:12;20.17;;;3.20;;
18776;SDS011;9517;51.174;4.160;2023-12-20T13:35:41;23.83;;;3.40;;
18776;SDS011;9517;51.174;4.160;2023-12-20T13:38:09;20.43;;;3.50;;
18776;SDS011;9517;51.174;4.160;2023-12-20T13:40:39;20.23;;;3.60;;
18776;SDS011;9517;51.174;4.160;2023-12-20T13:43:34;19.40;;;3.57;;
18776;SDS011;9517;51.174;4.160;2023-12-20T13:46:37;24.47;;;4.13;;
18776;SDS011;9517;51.174;4.160;2023-12-20T13:49:42;16.53;;;2.80;;
18776;SDS011;9517;51.174;4.160;2023-12-20T13:52:43;17.87;;;3.10;;
18776;SDS011;9517;51.174;4.160;2023-12-20T13:55:34;18.70;;;2.97;;
18776;SDS011;9517;51.174;4.160;2023-12-20T13:58:08;20.83;;;3.03;;
18776;SDS011;9517;51.174;4.160;2023-12-20T14:00:36;18.10;;;3.53;;
18776;SDS011;9517;51.174;4.160;2023-12-20T14:03:07;21.30;;;3.80;;
18776;SDS011;9517;51.174;4.160;2023-12-20T14:05:35;16.57;;;3.67;;
18776;SDS011;9517;51.174;4.160;2023-12-20T14:08:05;16.83;;;3.10;;
18776;SDS011;9517;51.174;4.160;2023-12-20T14:10:33;15.93;;;2.90;;
18776;SDS011;9517;51.174;4.160;2023-12-20T14:13:01;17.80;;;3.10;;
18776;SDS011;9517;51.174;4.160;2023-12-20T14:15:29;18.57;;;3.37;;
18776;SDS011;9517;51.174;4.160;2023-12-20T14:18:02;18.70;;;3.20;;
18776;SDS011;9517;51.174;4.160;2023-12-20T14:20:33;17.93;;;3.73;;
18776;SDS011;9517;51.174;4.160;2023-12-20T14:23:01;18.73;;;2.90;;
18776;SDS011;9517;51.174;4.160;2023-12-20T14:25:30;20.13;;;3.30;;
18776;SDS011;9517;51.174;4.160;2023-12-20T14:27:58;18.17;;;3.07;;
18776;SDS011;9517;51.174;4.160;2023-12-20T14:30:26;17.03;;;3.83;;
18776;SDS011;9517;51.174;4.160;2023-12-20T14:32:57;20.50;;;2.90;;
18776;SDS011;9517;51.174;4.160;2023-12-20T14:35:25;22.53;;;5.07;;
18776;SDS011;9517;51.174;4.160;2023-12-20T14:38:12;19.90;;;3.37;;
18776;SDS011;9517;51.174;4.160;2023-12-20T14:51:14;18.93;;;3.57;;
18776;SDS011;9517;51.174;4.160;2023-12-20T14:53:42;17.83;;;3.43;;
18776;SDS011;9517;51.174;4.160;2023-12-20T14:56:10;19.97;;;3.70;;
18776;SDS011;9517;51.174;4.160;2023-12-20T14:58:37;15.70;;;2.97;;
18776;SDS011;9517;51.174;4.160;2023-12-20T15:01:06;16.80;;;3.33;;
18776;SDS011;9517;51.174;4.160;2023-12-20T15:03:35;21.07;;;3.20;;
18776;SDS011;9517;51.174;4.160;2023-12-20T15:06:05;16.17;;;3.37;;
18776;SDS011;9517;51.174;4.160;2023-12-20T15:08:36;14.87;;;2.90;;
18776;SDS011;9517;51.174;4.160;2023-12-20T15:11:04;18.83;;;3.40;;
18776;SDS011;9517;51.174;4.160;2023-12-20T15:13:32;12.20;;;2.50;;
18776;SDS011;9517;51.174;4.160;2023-12-20T15:16:00;15.47;;;3.23;;
18776;SDS011;9517;51.174;4.160;2023-12-20T15:18:30;17.40;;;3.73;;
18776;SDS011;9517;51.174;4.160;2023-12-20T15:20:58;16.47;;;3.70;;
18776;SDS011;9517;51.174;4.160;2023-12-20T15:23:25;20.00;;;4.00;;
18776;SDS011;9517;51.174;4.160;2023-12-20T15:25:55;19.23;;;4.20;;
18776;SDS011;9517;51.174;4.160;2023-12-20T15:28:23;18.03;;;3.50;;
18776;SDS011;9517;51.174;4.160;2023-12-20T15:30:51;19.10;;;3.90;;
18776;SDS011;9517;51.174;4.160;2023-12-20T15:33:22;20.30;;;4.20;;
18776;SDS011;9517;51.174;4.160;2023-12-20T15:35:51;16.20;;;3.27;;
18776;SDS011;9517;51.174;4.160;2023-12-20T15:38:19;19.47;;;4.23;;
18776;SDS011;9517;51.174;4.160;2023-12-20T15:40:48;20.37;;;5.00;;
18776;SDS011;9517;51.174;4.160;2023-12-20T15:43:29;19.80;;;3.73;;
18776;SDS011;9517;51.174;4.160;2023-12-20T15:45:56;16.57;;;3.80;;
18776;SDS011;9517;51.174;4.160;2023-12-20T15:48:24;20.20;;;4.27;;
18776;SDS011;9517;51.174;4.160;2023-12-20T15:51:03;16.50;;;4.13;;
18776;SDS011;9517;51.174;4.160;2023-12-20T15:53:31;17.77;;;3.87;;
18776;SDS011;9517;51.174;4.160;2023-12-20T15:56:02;13.77;;;3.50;;
18776;SDS011;9517;51.174;4.160;2023-12-20T15:58:31;20.77;;;3.83;;
18776;SDS011;9517;51.174;4.160;2023-12-20T16:00:59;18.33;;;3.50;;
18776;SDS011;9517;51.174;4.160;2023-12-20T16:03:30;17.40;;;3.63;;
18776;SDS011;9517;51.174;4.160;2023-12-20T16:06:03;20.07;;;3.60;;
18776;SDS011;9517;51.174;4.160;2023-12-20T16:08:34;15.43;;;4.23;;
18776;SDS011;9517;51.174;4.160;2023-12-20T16:11:02;20.73;;;3.93;;
18776;SDS011;9517;51.174;4.160;2023-12-20T16:13:29;18.33;;;3.33;;
18776;SDS011;9517;51.174;4.160;2023-12-20T16:15:57;14.43;;;3.17;;
18776;SDS011;9517;51.174;4.160;2023-12-20T16:18:27;18.63;;;3.40;;
18776;SDS011;9517;51.174;4.160;2023-12-20T16:20:56;17.50;;;3.27;;
18776;SDS011;9517;51.174;4.160;2023-12-20T16:23:27;19.03;;;3.47;;
18776;SDS011;9517;51.174;4.160;2023-12-20T16:25:55;16.63;;;3.00;;
18776;SDS011;9517;51.174;4.160;2023-12-20T16:28:23;14.17;;;2.50;;
18776;SDS011;9517;51.174;4.160;2023-12-20T16:30:50;16.40;;;3.20;;
18776;SDS011;9517;51.174;4.160;2023-12-20T16:33:20;14.10;;;2.97;;
18776;SDS011;9517;51.174;4.160;2023-12-20T16:35:49;16.80;;;3.00;;
18776;SDS011;9517;51.174;4.160;2023-12-20T16:38:16;16.13;;;3.63;;
18776;SDS011;9517;51.174;4.160;2023-12-20T16:40:45;15.03;;;3.00;;
18776;SDS011;9517;51.174;4.160;2023-12-20T16:43:13;13.50;;;3.20;;
18776;SDS011;9517;51.174;4.160;2023-12-20T16:45:41;17.23;;;3.43;;
18776;SDS011;9517;51.174;4.160;2023-12-20T16:48:09;15.63;;;3.43;;
18776;SDS011;9517;51.174;4.160;2023-12-20T16:50:37;19.73;;;4.07;;
18776;SDS011;9517;51.174;4.160;2023-12-20T16:53:04;17.00;;;3.53;;
18776;SDS011;9517;51.174;4.160;2023-12-20T16:55:32;19.67;;;3.03;;
18776;SDS011;9517;51.174;4.160;2023-12-20T16:58:02;20.43;;;3.60;;
18776;SDS011;9517;51.174;4.160;2023-12-20T17:00:29;18.03;;;3.50;;
18776;SDS011;9517;51.174;4.160;2023-12-20T17:02:59;14.57;;;3.20;;
18776;SDS011;9517;51.174;4.160;2023-12-20T17:05:27;16.23;;;3.47;;
18776;SDS011;9517;51.174;4.160;2023-12-20T17:07:54;17.57;;;3.30;;
18776;SDS011;9517;51.174;4.160;2023-12-20T17:10:22;15.73;;;3.17;;
18776;SDS011;9517;51.174;4.160;2023-12-20T17:12:50;14.93;;;3.40;;
18776;SDS011;9517;51.174;4.160;2023-12-20T17:15:19;21.57;;;3.27;;
18776;SDS011;9517;51.174;4.160;2023-12-20T17:17:47;20.13;;;3.63;;
18776;SDS011;9517;51.174;4.160;2023-12-20T17:20:15;16.43;;;3.03;;
18776;SDS011;9517;51.174;4.160;2023-12-20T17:22:43;17.33;;;3.33;;
18776;SDS011;9517;51.174;4.160;2023-12-20T17:25:11;16.03;;;4.00;;
18776;SDS011;9517;51.174;4.160;2023-12-20T17:27:38;15.30;;;3.40;;
18776;SDS011;9517;51.174;4.160;2023-12-20T17:30:07;15.83;;;3.50;;
18776;SDS011;9517;51.174;4.160;2023-12-20T17:32:37;15.83;;;3.83;;
18776;SDS011;9517;51.174;4.160;2023-12-20T17:35:05;15.37;;;4.10;;
18776;SDS011;9517;51.174;4.160;2023-12-20T17:37:34;17.60;;;4.17;;
18776;SDS011;9517;51.174;4.160;2023-12-20T17:40:01;21.43;;;4.20;;
18776;SDS011;9517;51.174;4.160;2023-12-20T17:42:29;15.50;;;4.43;;
18776;SDS011;9517;51.174;4.160;2023-12-20T17:45:00;15.40;;;3.67;;
18776;SDS011;9517;51.174;4.160;2023-12-20T17:47:27;15.70;;;3.27;;
18776;SDS011;9517;51.174;4.160;2023-12-20T17:49:57;18.53;;;4.87;;
18776;SDS011;9517;51.174;4.160;2023-12-20T17:52:25;18.67;;;3.60;;
18776;SDS011;9517;51.174;4.160;2023-12-20T17:54:52;17.27;;;3.57;;
18776;SDS011;9517;51.174;4.160;2023-12-20T17:57:20;17.27;;;4.10;;
18776;SDS011;9517;51.174;4.160;2023-12-20T17:59:49;15.90;;;3.73;;
18776;SDS011;9517;51.174;4.160;2023-12-20T18:02:17;17.73;;;3.47;;
18776;SDS011;9517;51.174;4.160;2023-12-20T18:04:45;17.63;;;3.57;;
18776;SDS011;9517;51.174;4.160;2023-12-20T18:07:14;18.67;;;4.33;;
18776;SDS011;9517;51.174;4.160;2023-12-20T18:09:42;16.30;;;3.80;;
18776;SDS011;9517;51.174;4.160;2023-12-20T18:12:10;17.33;;;3.70;;
18776;SDS011;9517;51.174;4.160;2023-12-20T18:14:38;10.93;;;3.07;;
18776;SDS011;9517;51.174;4.160;2023-12-20T18:17:05;19.97;;;3.90;;
18776;SDS011;9517;51.174;4.160;2023-12-20T18:19:33;18.77;;;3.90;;
18776;SDS011;9517;51.174;4.160;2023-12-20T18:22:01;18.83;;;4.33;;
18776;SDS011;9517;51.174;4.160;2023-12-20T18:24:32;15.27;;;3.63;;
18776;SDS011;9517;51.174;4.160;2023-12-20T18:27:00;18.03;;;3.27;;
18776;SDS011;9517;51.174;4.160;2023-12-20T18:29:27;20.83;;;3.83;;
18776;SDS011;9517;51.174;4.160;2023-12-20T18:31:56;17.43;;;3.47;;
18776;SDS011;9517;51.174;4.160;2023-12-20T18:34:26;17.20;;;3.50;;
18776;SDS011;9517;51.174;4.160;2023-12-20T18:36:54;19.93;;;4.10;;
18776;SDS011;9517;51.174;4.160;2023-12-20T18:39:22;16.27;;;3.70;;
18776;SDS011;9517;51.174;4.160;2023-12-20T18:41:52;16.73;;;3.50;;
18776;SDS011;9517;51.174;4.160;2023-12-20T18:44:19;19.40;;;3.27;;
18776;SDS011;9517;51.174;4.160;2023-12-20T18:46:47;19.33;;;4.43;;
18776;SDS011;9517;51.174;4.160;2023-12-20T18:49:15;14.63;;;3.67;;
18776;SDS011;9517;51.174;4.160;2023-12-20T18:51:43;18.43;;;3.50;;
18776;SDS011;9517;51.174;4.160;2023-12-20T18:54:11;17.53;;;3.23;;
18776;SDS011;9517;51.174;4.160;2023-12-20T18:56:38;16.90;;;3.43;;